sensor_id;sensor_type;location;lat;lon;timestamp;P1;durP1;ratioP1;P2;durP2;ratioP2
53287;SDS011;39172;45.550;12.072;2023-05-19T00:03:33;4.88;;;3.20;;
53287;SDS011;39172;45.550;12.072;2023-05-19T00:09:34;4.32;;;2.95;;
53287;SDS011;39172;45.550;12.072;2023-05-19T00:15:35;3.95;;;2.83;;
53287;SDS011;39172;45.550;12.072;2023-05-19T00:21:36;3.80;;;3.10;;
53287;SDS011;39172;45.550;12.072;2023-05-19T00:27:38;4.47;;;3.10;;
53287;SDS011;39172;45.550;12.072;2023-05-19T00:33:39;4.88;;;2.90;;
53287;SDS011;39172;45.550;12.072;2023-05-19T00:39:40;4.28;;;3.30;;
53287;SDS011;39172;45.550;12.072;2023-05-19T00:45:41;3.55;;;2.72;;
53287;SDS011;39172;45.550;12.072;2023-05-19T00:51:42;3.88;;;2.72;;
53287;SDS011;39172;45.550;12.072;2023-05-19T00:57:43;3.33;;;2.70;;
53287;SDS011;39172;45.550;12.072;2023-05-19T01:03:44;3.75;;;2.85;;
53287;SDS011;39172;45.550;12.072;2023-05-19T01:09:46;3.90;;;2.90;;
53287;SDS011;39172;45.550;12.072;2023-05-19T01:22:24;3.30;;;2.90;;
53287;SDS011;39172;45.550;12.072;2023-05-19T01:34:35;3.83;;;2.95;;
53287;SDS011;39172;45.550;12.072;2023-05-19T01:40:39;3.80;;;3.10;;
53287;SDS011;39172;45.550;12.072;2023-05-19T01:46:43;3.67;;;3.10;;
53287;SDS011;39172;45.550;12.072;2023-05-19T01:52:46;3.35;;;2.90;;
53287;SDS011;39172;45.550;12.072;2023-05-19T01:58:49;3.88;;;2.97;;
53287;SDS011;39172;45.550;12.072;2023-05-19T02:04:58;3.90;;;2.80;;
53287;SDS011;39172;45.550;12.072;2023-05-19T02:11:04;4.03;;;2.95;;
53287;SDS011;39172;45.550;12.072;2023-05-19T02:17:07;4.00;;;2.97;;
53287;SDS011;39172;45.550;12.072;2023-05-19T02:23:08;2.80;;;2.58;;
53287;SDS011;39172;45.550;12.072;2023-05-19T02:29:09;4.97;;;3.05;;
53287;SDS011;39172;45.550;12.072;2023-05-19T02:35:10;3.53;;;3.00;;
53287;SDS011;39172;45.550;12.072;2023-05-19T02:41:14;2.97;;;2.67;;
53287;SDS011;39172;45.550;12.072;2023-05-19T02:47:15;3.35;;;2.67;;
53287;SDS011;39172;45.550;12.072;2023-05-19T02:53:16;2.90;;;2.30;;
53287;SDS011;39172;45.550;12.072;2023-05-19T02:59:17;2.85;;;2.50;;
53287;SDS011;39172;45.550;12.072;2023-05-19T03:05:18;3.97;;;2.58;;
53287;SDS011;39172;45.550;12.072;2023-05-19T03:11:19;2.97;;;2.35;;
53287;SDS011;39172;45.550;12.072;2023-05-19T03:17:20;2.50;;;2.30;;
53287;SDS011;39172;45.550;12.072;2023-05-19T03:23:21;2.60;;;2.25;;
53287;SDS011;39172;45.550;12.072;2023-05-19T03:29:22;2.35;;;2.15;;
53287;SDS011;39172;45.550;12.072;2023-05-19T03:35:25;2.40;;;1.90;;
53287;SDS011;39172;45.550;12.072;2023-05-19T03:41:26;2.78;;;2.38;;
53287;SDS011;39172;45.550;12.072;2023-05-19T03:47:27;3.67;;;3.17;;
53287;SDS011;39172;45.550;12.072;2023-05-19T03:53:46;5.10;;;3.53;;
53287;SDS011;39172;45.550;12.072;2023-05-19T03:59:48;5.60;;;3.78;;
53287;SDS011;39172;45.550;12.072;2023-05-19T04:05:49;3.90;;;3.45;;
53287;SDS011;39172;45.550;12.072;2023-05-19T04:11:51;5.30;;;3.88;;
53287;SDS011;39172;45.550;12.072;2023-05-19T04:17:52;5.30;;;3.70;;
53287;SDS011;39172;45.550;12.072;2023-05-19T04:23:53;5.55;;;3.53;;
53287;SDS011;39172;45.550;12.072;2023-05-19T04:29:54;5.35;;;4.00;;
53287;SDS011;39172;45.550;12.072;2023-05-19T04:35:56;6.20;;;3.58;;
53287;SDS011;39172;45.550;12.072;2023-05-19T04:41:58;5.10;;;3.50;;
53287;SDS011;39172;45.550;12.072;2023-05-19T04:48:00;4.95;;;3.85;;
53287;SDS011;39172;45.550;12.072;2023-05-19T04:54:01;4.57;;;3.78;;
53287;SDS011;39172;45.550;12.072;2023-05-19T05:00:04;4.43;;;3.50;;
53287;SDS011;39172;45.550;12.072;2023-05-19T05:06:13;5.95;;;3.78;;
53287;SDS011;39172;45.550;12.072;2023-05-19T05:12:19;5.28;;;3.80;;
53287;SDS011;39172;45.550;12.072;2023-05-19T05:18:22;5.30;;;4.13;;
53287;SDS011;39172;45.550;12.072;2023-05-19T05:24:23;5.68;;;3.67;;
53287;SDS011;39172;45.550;12.072;2023-05-19T05:30:29;4.25;;;3.63;;
53287;SDS011;39172;45.550;12.072;2023-05-19T05:36:31;5.22;;;3.70;;
53287;SDS011;39172;45.550;12.072;2023-05-19T05:42:54;5.10;;;3.67;;
53287;SDS011;39172;45.550;12.072;2023-05-19T05:48:58;4.15;;;3.53;;
53287;SDS011;39172;45.550;12.072;2023-05-19T05:55:19;5.30;;;3.60;;
53287;SDS011;39172;45.550;12.072;2023-05-19T06:01:21;5.18;;;3.85;;
53287;SDS011;39172;45.550;12.072;2023-05-19T06:07:24;4.47;;;3.60;;
53287;SDS011;39172;45.550;12.072;2023-05-19T06:13:26;4.50;;;3.50;;
53287;SDS011;39172;45.550;12.072;2023-05-19T06:19:39;4.75;;;3.80;;
53287;SDS011;39172;45.550;12.072;2023-05-19T06:25:41;6.18;;;4.47;;
53287;SDS011;39172;45.550;12.072;2023-05-19T06:31:42;6.57;;;5.00;;
53287;SDS011;39172;45.550;12.072;2023-05-19T06:37:45;5.72;;;4.22;;
53287;SDS011;39172;45.550;12.072;2023-05-19T06:43:47;5.75;;;4.13;;
53287;SDS011;39172;45.550;12.072;2023-05-19T06:49:48;4.50;;;3.88;;
53287;SDS011;39172;45.550;12.072;2023-05-19T06:55:57;4.30;;;3.60;;
53287;SDS011;39172;45.550;12.072;2023-05-19T07:01:59;3.90;;;3.50;;
53287;SDS011;39172;45.550;12.072;2023-05-19T07:08:02;4.45;;;3.45;;
53287;SDS011;39172;45.550;12.072;2023-05-19T07:14:06;3.70;;;2.92;;
53287;SDS011;39172;45.550;12.072;2023-05-19T07:20:07;4.20;;;3.03;;
53287;SDS011;39172;45.550;12.072;2023-05-19T07:26:10;3.22;;;2.67;;
53287;SDS011;39172;45.550;12.072;2023-05-19T07:32:11;3.10;;;2.67;;
53287;SDS011;39172;45.550;12.072;2023-05-19T07:38:15;3.00;;;2.70;;
53287;SDS011;39172;45.550;12.072;2023-05-19T07:44:16;2.50;;;2.30;;
53287;SDS011;39172;45.550;12.072;2023-05-19T07:50:17;2.40;;;2.00;;
53287;SDS011;39172;45.550;12.072;2023-05-19T07:56:18;3.03;;;2.20;;
53287;SDS011;39172;45.550;12.072;2023-05-19T08:02:21;2.47;;;1.70;;
53287;SDS011;39172;45.550;12.072;2023-05-19T08:08:22;2.28;;;1.88;;
53287;SDS011;39172;45.550;12.072;2023-05-19T08:14:23;2.10;;;1.90;;
53287;SDS011;39172;45.550;12.072;2023-05-19T08:20:24;2.65;;;1.95;;
53287;SDS011;39172;45.550;12.072;2023-05-19T08:26:26;2.83;;;1.90;;
53287;SDS011;39172;45.550;12.072;2023-05-19T08:32:28;2.08;;;1.60;;
53287;SDS011;39172;45.550;12.072;2023-05-19T08:38:29;3.10;;;1.95;;
53287;SDS011;39172;45.550;12.072;2023-05-19T08:44:30;1.75;;;1.60;;
53287;SDS011;39172;45.550;12.072;2023-05-19T08:50:33;2.38;;;1.60;;
53287;SDS011;39172;45.550;12.072;2023-05-19T08:56:36;2.15;;;1.60;;
53287;SDS011;39172;45.550;12.072;2023-05-19T09:02:37;2.13;;;1.80;;
53287;SDS011;39172;45.550;12.072;2023-05-19T09:08:39;2.13;;;1.80;;
53287;SDS011;39172;45.550;12.072;2023-05-19T09:14:41;2.13;;;1.92;;
53287;SDS011;39172;45.550;12.072;2023-05-19T09:20:42;1.90;;;1.70;;
53287;SDS011;39172;45.550;12.072;2023-05-19T09:26:45;2.05;;;1.55;;
53287;SDS011;39172;45.550;12.072;2023-05-19T09:32:51;2.00;;;1.70;;
53287;SDS011;39172;45.550;12.072;2023-05-19T09:38:52;1.95;;;1.58;;
53287;SDS011;39172;45.550;12.072;2023-05-19T09:45:00;1.70;;;1.60;;
53287;SDS011;39172;45.550;12.072;2023-05-19T09:51:03;1.85;;;1.67;;
53287;SDS011;39172;45.550;12.072;2023-05-19T09:57:05;1.85;;;1.65;;
53287;SDS011;39172;45.550;12.072;2023-05-19T10:03:07;2.17;;;1.70;;
53287;SDS011;39172;45.550;12.072;2023-05-19T10:09:11;1.70;;;1.42;;
53287;SDS011;39172;45.550;12.072;2023-05-19T10:15:14;1.63;;;1.52;;
53287;SDS011;39172;45.550;12.072;2023-05-19T10:21:16;2.10;;;1.70;;
53287;SDS011;39172;45.550;12.072;2023-05-19T10:27:17;1.88;;;1.60;;
53287;SDS011;39172;45.550;12.072;2023-05-19T10:33:18;1.58;;;1.40;;
53287;SDS011;39172;45.550;12.072;2023-05-19T10:39:24;1.20;;;1.10;;
53287;SDS011;39172;45.550;12.072;2023-05-19T10:45:26;1.88;;;1.25;;
53287;SDS011;39172;45.550;12.072;2023-05-19T10:51:30;1.20;;;1.10;;
53287;SDS011;39172;45.550;12.072;2023-05-19T10:57:37;1.40;;;1.10;;
53287;SDS011;39172;45.550;12.072;2023-05-19T11:03:53;1.10;;;1.00;;
53287;SDS011;39172;45.550;12.072;2023-05-19T11:09:56;1.20;;;1.10;;
53287;SDS011;39172;45.550;12.072;2023-05-19T11:15:57;1.10;;;1.00;;
53287;SDS011;39172;45.550;12.072;2023-05-19T11:22:09;2.15;;;1.08;;
53287;SDS011;39172;45.550;12.072;2023-05-19T11:28:11;1.38;;;0.82;;
53287;SDS011;39172;45.550;12.072;2023-05-19T11:34:13;1.83;;;0.93;;
53287;SDS011;39172;45.550;12.072;2023-05-19T11:40:15;1.60;;;1.00;;
53287;SDS011;39172;45.550;12.072;2023-05-19T11:46:16;0.90;;;0.80;;
53287;SDS011;39172;45.550;12.072;2023-05-19T11:52:21;1.20;;;0.90;;
53287;SDS011;39172;45.550;12.072;2023-05-19T11:58:25;1.10;;;1.00;;
53287;SDS011;39172;45.550;12.072;2023-05-19T12:04:27;1.55;;;0.90;;
53287;SDS011;39172;45.550;12.072;2023-05-19T12:10:29;1.75;;;0.90;;
53287;SDS011;39172;45.550;12.072;2023-05-19T12:16:34;1.60;;;0.80;;
53287;SDS011;39172;45.550;12.072;2023-05-19T12:22:35;0.98;;;0.88;;
53287;SDS011;39172;45.550;12.072;2023-05-19T12:28:36;1.30;;;1.00;;
53287;SDS011;39172;45.550;12.072;2023-05-19T12:34:37;1.63;;;0.82;;
53287;SDS011;39172;45.550;12.072;2023-05-19T12:40:38;0.80;;;0.70;;
53287;SDS011;39172;45.550;12.072;2023-05-19T12:46:41;1.67;;;0.80;;
53287;SDS011;39172;45.550;12.072;2023-05-19T12:52:47;1.00;;;0.90;;
53287;SDS011;39172;45.550;12.072;2023-05-19T12:58:52;1.10;;;0.90;;
53287;SDS011;39172;45.550;12.072;2023-05-19T13:04:53;1.33;;;1.00;;
53287;SDS011;39172;45.550;12.072;2023-05-19T13:10:54;0.80;;;0.75;;
53287;SDS011;39172;45.550;12.072;2023-05-19T13:16:55;0.60;;;0.60;;
53287;SDS011;39172;45.550;12.072;2023-05-19T13:22:56;1.00;;;0.90;;
53287;SDS011;39172;45.550;12.072;2023-05-19T13:28:57;0.95;;;0.80;;
53287;SDS011;39172;45.550;12.072;2023-05-19T13:34:59;1.00;;;0.90;;
53287;SDS011;39172;45.550;12.072;2023-05-19T13:41:02;0.80;;;0.80;;
53287;SDS011;39172;45.550;12.072;2023-05-19T13:47:04;0.80;;;0.80;;
53287;SDS011;39172;45.550;12.072;2023-05-19T13:53:07;1.10;;;0.80;;
53287;SDS011;39172;45.550;12.072;2023-05-19T13:59:09;1.02;;;0.93;;
53287;SDS011;39172;45.550;12.072;2023-05-19T14:05:10;1.63;;;0.80;;
53287;SDS011;39172;45.550;12.072;2023-05-19T14:11:18;1.70;;;0.77;;
53287;SDS011;39172;45.550;12.072;2023-05-19T14:17:26;1.13;;;0.80;;
53287;SDS011;39172;45.550;12.072;2023-05-19T14:23:31;1.10;;;0.80;;
53287;SDS011;39172;45.550;12.072;2023-05-19T14:29:32;1.08;;;0.98;;
53287;SDS011;39172;45.550;12.072;2023-05-19T14:35:33;1.00;;;0.90;;
53287;SDS011;39172;45.550;12.072;2023-05-19T14:41:34;1.15;;;0.93;;
53287;SDS011;39172;45.550;12.072;2023-05-19T14:47:35;1.20;;;0.90;;
53287;SDS011;39172;45.550;12.072;2023-05-19T14:53:39;1.08;;;0.80;;
53287;SDS011;39172;45.550;12.072;2023-05-19T14:59:40;1.00;;;0.90;;
53287;SDS011;39172;45.550;12.072;2023-05-19T15:05:41;1.10;;;0.98;;
53287;SDS011;39172;45.550;12.072;2023-05-19T15:11:43;1.00;;;0.90;;
53287;SDS011;39172;45.550;12.072;2023-05-19T15:17:48;2.20;;;1.67;;
53287;SDS011;39172;45.550;12.072;2023-05-19T15:23:49;1.40;;;1.30;;
53287;SDS011;39172;45.550;12.072;2023-05-19T15:29:53;3.40;;;1.30;;
53287;SDS011;39172;45.550;12.072;2023-05-19T15:35:55;1.23;;;1.10;;
53287;SDS011;39172;45.550;12.072;2023-05-19T15:41:56;1.85;;;1.10;;
53287;SDS011;39172;45.550;12.072;2023-05-19T15:47:57;1.10;;;1.00;;
53287;SDS011;39172;45.550;12.072;2023-05-19T15:53:59;1.10;;;1.00;;
53287;SDS011;39172;45.550;12.072;2023-05-19T16:00:01;1.50;;;1.10;;
53287;SDS011;39172;45.550;12.072;2023-05-19T16:06:02;1.13;;;0.88;;
53287;SDS011;39172;45.550;12.072;2023-05-19T16:12:05;1.17;;;1.00;;
53287;SDS011;39172;45.550;12.072;2023-05-19T16:18:06;1.33;;;1.15;;
53287;SDS011;39172;45.550;12.072;2023-05-19T16:24:07;1.10;;;1.00;;
53287;SDS011;39172;45.550;12.072;2023-05-19T16:30:08;0.80;;;0.77;;
53287;SDS011;39172;45.550;12.072;2023-05-19T16:36:09;1.45;;;1.00;;
53287;SDS011;39172;45.550;12.072;2023-05-19T16:42:15;1.05;;;0.90;;
53287;SDS011;39172;45.550;12.072;2023-05-19T16:48:21;1.33;;;1.10;;
53287;SDS011;39172;45.550;12.072;2023-05-19T16:54:22;1.30;;;1.20;;
53287;SDS011;39172;45.550;12.072;2023-05-19T17:00:24;2.55;;;1.25;;
53287;SDS011;39172;45.550;12.072;2023-05-19T17:06:25;1.75;;;1.50;;
53287;SDS011;39172;45.550;12.072;2023-05-19T17:12:29;2.15;;;1.35;;
53287;SDS011;39172;45.550;12.072;2023-05-19T17:18:30;1.92;;;1.48;;
53287;SDS011;39172;45.550;12.072;2023-05-19T17:24:31;1.58;;;1.30;;
53287;SDS011;39172;45.550;12.072;2023-05-19T17:30:32;1.60;;;1.50;;
53287;SDS011;39172;45.550;12.072;2023-05-19T17:36:34;2.10;;;1.70;;
53287;SDS011;39172;45.550;12.072;2023-05-19T17:42:40;1.75;;;1.65;;
53287;SDS011;39172;45.550;12.072;2023-05-19T17:48:41;2.10;;;1.88;;
53287;SDS011;39172;45.550;12.072;2023-05-19T17:54:44;2.00;;;1.80;;
53287;SDS011;39172;45.550;12.072;2023-05-19T18:00:48;1.92;;;1.70;;
53287;SDS011;39172;45.550;12.072;2023-05-19T18:06:51;3.35;;;2.10;;
53287;SDS011;39172;45.550;12.072;2023-05-19T18:12:52;2.83;;;2.00;;
53287;SDS011;39172;45.550;12.072;2023-05-19T18:18:53;2.05;;;1.85;;
53287;SDS011;39172;45.550;12.072;2023-05-19T18:24:55;1.70;;;1.60;;
53287;SDS011;39172;45.550;12.072;2023-05-19T18:30:57;2.60;;;2.13;;
53287;SDS011;39172;45.550;12.072;2023-05-19T18:37:02;2.15;;;1.90;;
53287;SDS011;39172;45.550;12.072;2023-05-19T18:43:03;2.60;;;2.13;;
53287;SDS011;39172;45.550;12.072;2023-05-19T18:49:04;3.28;;;2.35;;
53287;SDS011;39172;45.550;12.072;2023-05-19T18:55:08;3.60;;;2.65;;
53287;SDS011;39172;45.550;12.072;2023-05-19T19:01:11;3.83;;;2.78;;
53287;SDS011;39172;45.550;12.072;2023-05-19T19:07:15;4.03;;;2.90;;
53287;SDS011;39172;45.550;12.072;2023-05-19T19:13:17;3.95;;;2.90;;
53287;SDS011;39172;45.550;12.072;2023-05-19T19:19:18;4.00;;;3.05;;
53287;SDS011;39172;45.550;12.072;2023-05-19T19:25:19;3.88;;;3.17;;
53287;SDS011;39172;45.550;12.072;2023-05-19T19:31:25;6.00;;;4.15;;
53287;SDS011;39172;45.550;12.072;2023-05-19T19:37:28;5.63;;;4.20;;
53287;SDS011;39172;45.550;12.072;2023-05-19T19:43:29;5.32;;;4.25;;
53287;SDS011;39172;45.550;12.072;2023-05-19T19:49:31;5.18;;;4.13;;
53287;SDS011;39172;45.550;12.072;2023-05-19T19:55:32;5.38;;;4.07;;
53287;SDS011;39172;45.550;12.072;2023-05-19T20:01:33;5.68;;;3.90;;
53287;SDS011;39172;45.550;12.072;2023-05-19T20:07:35;5.70;;;3.70;;
53287;SDS011;39172;45.550;12.072;2023-05-19T20:13:36;4.07;;;3.55;;
53287;SDS011;39172;45.550;12.072;2023-05-19T20:19:37;4.03;;;3.58;;
53287;SDS011;39172;45.550;12.072;2023-05-19T20:25:38;4.20;;;3.80;;
53287;SDS011;39172;45.550;12.072;2023-05-19T20:31:42;4.85;;;3.88;;
53287;SDS011;39172;45.550;12.072;2023-05-19T20:37:46;5.50;;;4.15;;
53287;SDS011;39172;45.550;12.072;2023-05-19T20:43:47;5.60;;;4.05;;
53287;SDS011;39172;45.550;12.072;2023-05-19T20:49:48;4.47;;;3.60;;
53287;SDS011;39172;45.550;12.072;2023-05-19T20:55:49;4.45;;;3.75;;
53287;SDS011;39172;45.550;12.072;2023-05-19T21:01:50;3.67;;;3.33;;
53287;SDS011;39172;45.550;12.072;2023-05-19T21:07:51;4.63;;;3.88;;
53287;SDS011;39172;45.550;12.072;2023-05-19T21:13:52;4.68;;;3.88;;
53287;SDS011;39172;45.550;12.072;2023-05-19T21:19:58;4.78;;;3.53;;
53287;SDS011;39172;45.550;12.072;2023-05-19T21:26:00;4.05;;;3.33;;
53287;SDS011;39172;45.550;12.072;2023-05-19T21:32:01;4.97;;;3.63;;
53287;SDS011;39172;45.550;12.072;2023-05-19T21:38:03;4.32;;;3.50;;
53287;SDS011;39172;45.550;12.072;2023-05-19T21:44:04;3.83;;;3.20;;
53287;SDS011;39172;45.550;12.072;2023-05-19T21:50:06;3.45;;;3.15;;
53287;SDS011;39172;45.550;12.072;2023-05-19T21:56:07;3.88;;;3.13;;
53287;SDS011;39172;45.550;12.072;2023-05-19T22:02:08;3.00;;;2.70;;
53287;SDS011;39172;45.550;12.072;2023-05-19T22:08:09;3.67;;;3.17;;
53287;SDS011;39172;45.550;12.072;2023-05-19T22:14:11;4.20;;;3.47;;
53287;SDS011;39172;45.550;12.072;2023-05-19T22:20:12;4.68;;;3.72;;
53287;SDS011;39172;45.550;12.072;2023-05-19T22:26:13;4.70;;;3.80;;
53287;SDS011;39172;45.550;12.072;2023-05-19T22:32:15;5.43;;;3.70;;
53287;SDS011;39172;45.550;12.072;2023-05-19T22:38:22;5.30;;;3.95;;
53287;SDS011;39172;45.550;12.072;2023-05-19T22:44:23;4.45;;;3.70;;
53287;SDS011;39172;45.550;12.072;2023-05-19T22:50:24;4.40;;;4.00;;
53287;SDS011;39172;45.550;12.072;2023-05-19T22:56:25;4.55;;;3.83;;
53287;SDS011;39172;45.550;12.072;2023-05-19T23:02:27;5.00;;;4.00;;
53287;SDS011;39172;45.550;12.072;2023-05-19T23:08:28;4.60;;;3.70;;
53287;SDS011;39172;45.550;12.072;2023-05-19T23:14:29;4.07;;;3.58;;
53287;SDS011;39172;45.550;12.072;2023-05-19T23:20:31;5.22;;;4.00;;
53287;SDS011;39172;45.550;12.072;2023-05-19T23:26:33;5.53;;;4.00;;
53287;SDS011;39172;45.550;12.072;2023-05-19T23:32:35;4.25;;;3.85;;
53287;SDS011;39172;45.550;12.072;2023-05-19T23:38:36;5.78;;;4.18;;
53287;SDS011;39172;45.550;12.072;2023-05-19T23:44:37;5.25;;;4.00;;
53287;SDS011;39172;45.550;12.072;2023-05-19T23:50:38;4.30;;;3.90;;
53287;SDS011;39172;45.550;12.072;2023-05-19T23:56:39;4.15;;;3.70;;
